Time;durP1;ratioP1;P1;durP2;ratioP2;P2;SDS_P1;SDS_P2;PMS_P1;PMS_P2;Temp;Humidity;BMP_temperature;BMP_pressure;BME280_temperature;BME280_humidity;BME280_pressure;Samples;Min_cycle;Max_cycle;Signal;HPM_P1;HPM_P2
2021/09/14 00:01:03;;;;;;;5.28;2.92;;;13.70;99.90;;;;;;5072716;28;20135;-71
2021/09/14 00:03:28;;;;;;;6.20;2.63;;;13.70;99.90;;;;;;5073190;28;20082;-71
2021/09/14 00:05:54;;;;;;;6.10;2.78;;;13.70;99.90;;;;;;5072972;28;20037;-71
2021/09/14 00:08:20;;;;;;;6.15;2.90;;;13.70;99.90;;;;;;5072413;28;20036;-71
2021/09/14 00:10:46;;;;;;;5.95;3.15;;;13.70;99.90;;;;;;5072149;28;20044;-71
2021/09/14 00:13:12;;;;;;;7.03;3.10;;;13.80;99.90;;;;;;5073684;28;20047;-71
2021/09/14 00:15:38;;;;;;;6.15;3.75;;;13.70;99.90;;;;;;5073503;28;20147;-71
2021/09/14 00:18:04;;;;;;;5.13;3.33;;;13.60;99.90;;;;;;5072926;28;20068;-71
2021/09/14 00:20:30;;;;;;;5.63;2.97;;;13.60;99.90;;;;;;5073472;28;20064;-71
2021/09/14 00:22:55;;;;;;;4.20;2.40;;;13.70;99.90;;;;;;5072831;28;20519;-71
2021/09/14 00:25:24;;;;;;;4.32;2.83;;;13.60;99.90;;;;;;5073678;28;20463;-71
2021/09/14 00:27:50;;;;;;;5.95;2.88;;;13.50;99.90;;;;;;5073925;28;20086;-71
2021/09/14 00:30:15;;;;;;;7.50;2.80;;;13.60;99.90;;;;;;5073168;28;20469;-71
2021/09/14 00:32:41;;;;;;;5.38;3.08;;;13.60;99.90;;;;;;5073893;28;20076;-71
2021/09/14 00:35:07;;;;;;;5.32;2.55;;;13.60;99.90;;;;;;5073386;28;20080;-71
2021/09/14 00:37:33;;;;;;;5.43;2.75;;;13.60;99.90;;;;;;5073745;28;20044;-71
2021/09/14 00:39:58;;;;;;;4.75;2.60;;;13.60;99.90;;;;;;5072201;28;20037;-71
2021/09/14 00:42:24;;;;;;;4.60;2.80;;;13.60;99.90;;;;;;5072090;28;20393;-71
2021/09/14 00:44:49;;;;;;;5.32;2.50;;;13.60;99.90;;;;;;5073554;28;20037;-71
2021/09/14 00:47:15;;;;;;;5.15;3.10;;;13.60;99.90;;;;;;5072560;28;20115;-71
2021/09/14 00:49:41;;;;;;;7.85;3.20;;;13.50;99.90;;;;;;5072928;28;20051;-71
2021/09/14 00:52:10;;;;;;;6.50;3.00;;;13.50;99.90;;;;;;5071952;28;20040;-71
2021/09/14 00:54:39;;;;;;;4.80;2.67;;;13.50;99.90;;;;;;5073358;28;20524;-71
2021/09/14 00:57:05;;;;;;;5.20;2.33;;;13.60;99.90;;;;;;5073194;28;20037;-71
2021/09/14 00:59:33;;;;;;;6.68;2.78;;;13.50;99.90;;;;;;5073085;28;20131;-71
2021/09/14 01:01:59;;;;;;;6.15;2.80;;;13.40;99.90;;;;;;5055383;28;20043;-71
2021/09/14 01:04:28;;;;;;;6.07;2.60;;;13.50;99.90;;;;;;5072214;28;20401;-71
2021/09/14 01:06:54;;;;;;;5.60;2.40;;;13.50;99.90;;;;;;5055355;28;20052;-71
2021/09/14 01:09:20;;;;;;;6.22;2.65;;;13.40;99.90;;;;;;5072838;28;20024;-71
2021/09/14 01:11:46;;;;;;;3.10;2.38;;;13.40;99.90;;;;;;5071884;28;20509;-71
2021/09/14 01:14:12;;;;;;;3.28;2.03;;;13.40;99.90;;;;;;5073113;28;20052;-71
2021/09/14 01:16:40;;;;;;;5.20;2.95;;;13.40;99.90;;;;;;5073081;28;20037;-71
2021/09/14 01:19:09;;;;;;;8.02;2.85;;;13.40;99.90;;;;;;5054530;28;20162;-71
2021/09/14 01:21:35;;;;;;;4.75;2.50;;;13.40;99.90;;;;;;5072779;28;20037;-71
2021/09/14 01:24:02;;;;;;;3.72;2.70;;;13.40;99.90;;;;;;5072929;28;20040;-71
2021/09/14 01:26:30;;;;;;;5.70;2.90;;;13.40;99.90;;;;;;5072965;28;20037;-71
2021/09/14 01:28:56;;;;;;;7.03;2.80;;;13.40;99.90;;;;;;5072503;28;20084;-71
2021/09/14 01:31:22;;;;;;;3.72;2.30;;;13.40;99.90;;;;;;5073380;28;20051;-71
2021/09/14 01:33:49;;;;;;;5.88;2.80;;;13.40;99.90;;;;;;5071533;28;20381;-71
2021/09/14 01:36:15;;;;;;;7.72;2.53;;;13.40;99.90;;;;;;5054855;28;20040;-71
2021/09/14 01:38:41;;;;;;;5.40;3.17;;;13.40;99.90;;;;;;5072495;28;20059;-71
2021/09/14 01:41:06;;;;;;;9.27;2.97;;;13.50;99.90;;;;;;5072935;28;20520;-71
2021/09/14 01:43:35;;;;;;;11.60;3.28;;;13.50;99.90;;;;;;5073005;28;20037;-71
2021/09/14 01:46:01;;;;;;;3.75;2.63;;;13.50;99.90;;;;;;5071386;28;20048;-71
2021/09/14 01:48:26;;;;;;;6.25;3.15;;;13.50;99.90;;;;;;5071535;28;20048;-71
2021/09/14 01:50:52;;;;;;;6.25;3.35;;;13.50;99.90;;;;;;5072447;28;20500;-71
2021/09/14 01:53:17;;;;;;;4.60;2.72;;;13.50;99.90;;;;;;5072874;28;20046;-71
2021/09/14 01:55:45;;;;;;;6.05;3.00;;;13.60;99.90;;;;;;5072487;28;20044;-71
2021/09/14 01:58:11;;;;;;;6.28;3.30;;;13.60;99.90;;;;;;5072634;28;20033;-71
2021/09/14 02:00:40;;;;;;;8.10;3.03;;;13.60;99.90;;;;;;5074677;28;20063;-71
2021/09/14 02:06:24;;;;;;;4.90;3.05;;;13.70;99.90;;;;;;5076354;28;20049;-71
2021/09/14 02:39:26;;;;;;;9.73;3.60;;;13.90;99.90;;;;;;5073964;28;20127;-71
2021/09/14 02:41:47;;;;;;;9.40;3.47;;;13.90;99.90;;;;;;5071108;28;20044;-71
2021/09/14 03:00:22;;;;;;;10.95;4.10;;;13.90;99.90;;;;;;5074907;28;20045;-71
2021/09/14 03:02:49;;;;;;;11.13;4.72;;;14.00;99.90;;;;;;5073883;28;20388;-71
2021/09/14 03:05:15;;;;;;;6.93;3.88;;;14.00;99.90;;;;;;5074970;28;20115;-71
2021/09/14 03:07:41;;;;;;;9.38;3.95;;;14.00;99.90;;;;;;5074860;28;20511;-71
2021/09/14 03:10:07;;;;;;;7.22;4.07;;;14.00;99.90;;;;;;5072695;28;20051;-71
2021/09/14 03:12:33;;;;;;;8.73;3.95;;;14.00;99.90;;;;;;5075066;28;20044;-71
2021/09/14 03:14:58;;;;;;;6.75;3.80;;;14.00;99.90;;;;;;5073603;28;20057;-71
2021/09/14 03:17:24;;;;;;;7.18;4.18;;;14.00;99.90;;;;;;5073463;28;20044;-71
2021/09/14 03:19:49;;;;;;;6.93;4.00;;;14.10;99.90;;;;;;5072891;28;20032;-71
2021/09/14 03:22:15;;;;;;;7.50;3.83;;;14.10;99.90;;;;;;5073418;28;20036;-71
2021/09/14 03:24:40;;;;;;;7.10;4.10;;;14.10;99.90;;;;;;5074745;28;20182;-71
2021/09/14 03:27:06;;;;;;;5.60;3.65;;;14.10;99.90;;;;;;5074791;28;20036;-71
2021/09/14 03:29:32;;;;;;;8.38;3.83;;;14.00;99.90;;;;;;5074117;28;20115;-71
2021/09/14 03:31:57;;;;;;;9.68;3.92;;;14.00;99.90;;;;;;5073335;28;20051;-71
2021/09/14 03:34:23;;;;;;;10.35;4.78;;;14.10;99.90;;;;;;5072972;28;20044;-71
2021/09/14 03:36:48;;;;;;;5.75;3.97;;;14.10;99.90;;;;;;5074130;28;20078;-71
2021/09/14 03:39:14;;;;;;;6.70;3.70;;;14.10;99.90;;;;;;5072497;28;20040;-71
2021/09/14 03:41:43;;;;;;;6.90;3.85;;;14.10;99.90;;;;;;5056802;28;20044;-71
2021/09/14 03:44:09;;;;;;;6.28;3.70;;;14.10;99.90;;;;;;5074442;28;20507;-71
2021/09/14 03:46:34;;;;;;;6.22;3.63;;;14.10;99.90;;;;;;5074159;28;20041;-71
2021/09/14 03:49:02;;;;;;;6.43;3.60;;;14.20;99.90;;;;;;5073772;28;20043;-71
2021/09/14 03:51:28;;;;;;;7.50;3.80;;;14.10;99.90;;;;;;5074349;28;20097;-71
2021/09/14 03:53:53;;;;;;;7.65;3.78;;;14.10;99.90;;;;;;5072977;28;20040;-71
2021/09/14 03:56:19;;;;;;;7.53;4.35;;;14.10;99.90;;;;;;5072691;28;20044;-71
2021/09/14 03:58:44;;;;;;;8.52;4.88;;;14.20;99.90;;;;;;5072426;28;20048;-71
2021/09/14 04:01:10;;;;;;;7.13;4.05;;;14.20;99.90;;;;;;5074347;28;20040;-70
2021/09/14 04:03:42;;;;;;;7.00;4.50;;;14.20;99.90;;;;;;5074446;28;20051;-71
2021/09/14 04:08:55;;;;;;;10.20;4.40;;;14.20;99.90;;;;;;5072429;28;20504;-71
2021/09/14 04:11:24;;;;;;;11.32;5.03;;;14.10;99.90;;;;;;5074130;28;20040;-71
2021/09/14 04:13:51;;;;;;;7.35;4.13;;;14.10;99.90;;;;;;5056175;28;20409;-71
2021/09/14 04:16:17;;;;;;;5.90;3.85;;;14.10;99.90;;;;;;5073855;28;20457;-71
2021/09/14 04:18:43;;;;;;;9.63;5.22;;;14.10;99.90;;;;;;5071976;28;20088;-71
2021/09/14 04:21:08;;;;;;;8.55;4.75;;;14.00;99.90;;;;;;5072236;28;20123;-71
2021/09/14 04:23:34;;;;;;;13.70;4.90;;;14.00;99.90;;;;;;5073340;28;20040;-71
2021/09/14 04:25:59;;;;;;;9.32;4.28;;;14.00;99.90;;;;;;5072742;28;20040;-71
2021/09/14 04:28:25;;;;;;;10.55;4.80;;;14.00;99.90;;;;;;5073374;28;20041;-71
2021/09/14 04:30:50;;;;;;;7.25;4.47;;;13.90;99.90;;;;;;5073269;28;20072;-71
2021/09/14 04:33:16;;;;;;;9.07;5.35;;;13.90;99.90;;;;;;5073507;28;20063;-71
2021/09/14 04:35:42;;;;;;;8.60;4.72;;;13.90;99.90;;;;;;5073704;28;20396;-71
2021/09/14 04:38:07;;;;;;;6.43;4.20;;;13.90;99.90;;;;;;5072643;28;20433;-71
2021/09/14 04:40:33;;;;;;;12.95;5.57;;;13.90;99.90;;;;;;5071773;28;20040;-71
2021/09/14 04:42:58;;;;;;;8.80;5.18;;;13.80;99.90;;;;;;5073482;28;20075;-71
2021/09/14 04:45:24;;;;;;;11.27;4.85;;;13.80;99.90;;;;;;5073261;28;20083;-71
2021/09/14 04:47:50;;;;;;;10.77;4.75;;;13.80;99.90;;;;;;5073151;28;20378;-71
2021/09/14 04:50:16;;;;;;;8.98;5.22;;;13.80;99.90;;;;;;5071611;28;20047;-71
2021/09/14 04:52:41;;;;;;;11.02;4.82;;;13.70;99.90;;;;;;5073121;28;20135;-71
2021/09/14 04:55:08;;;;;;;8.23;4.85;;;13.80;99.90;;;;;;5073693;28;20083;-71
2021/09/14 04:57:33;;;;;;;9.13;5.07;;;13.70;99.90;;;;;;5073712;28;20037;-71
2021/09/14 04:59:59;;;;;;;10.32;5.88;;;13.70;99.90;;;;;;5072874;28;20033;-71
2021/09/14 05:02:25;;;;;;;9.93;5.32;;;13.70;99.90;;;;;;5073092;28;20517;-70
2021/09/14 05:04:51;;;;;;;10.65;5.45;;;13.70;99.90;;;;;;5073148;28;20090;-71
2021/09/14 05:07:16;;;;;;;10.88;5.82;;;13.70;99.90;;;;;;5072415;28;20070;-70
2021/09/14 05:09:42;;;;;;;13.82;6.80;;;13.70;99.90;;;;;;5071513;28;20041;-71
2021/09/14 05:12:07;;;;;;;10.63;5.78;;;13.70;99.90;;;;;;5072033;28;20048;-71
2021/09/14 05:14:33;;;;;;;9.32;5.75;;;13.60;99.90;;;;;;5071839;28;20115;-71
2021/09/14 05:16:59;;;;;;;10.63;5.95;;;13.60;99.90;;;;;;5071813;28;20520;-71
2021/09/14 05:19:33;;;;;;;8.82;5.88;;;13.70;99.90;;;;;;5072823;28;20121;-71
2021/09/14 05:21:59;;;;;;;10.68;4.95;;;13.60;99.90;;;;;;5072871;28;20041;-71
2021/09/14 05:24:27;;;;;;;10.32;5.25;;;13.60;99.90;;;;;;5072825;28;20120;-71
2021/09/14 05:26:54;;;;;;;8.88;5.80;;;13.60;99.90;;;;;;5072691;28;20040;-71
2021/09/14 05:29:20;;;;;;;10.90;5.18;;;13.60;99.90;;;;;;5072578;28;20040;-71
2021/09/14 05:31:47;;;;;;;7.95;5.28;;;13.60;99.90;;;;;;5072008;28;20069;-71
2021/09/14 05:34:13;;;;;;;10.27;5.95;;;13.60;99.90;;;;;;5056179;28;20044;-71
2021/09/14 05:36:40;;;;;;;15.05;5.75;;;13.60;99.90;;;;;;5075162;28;20036;-71
2021/09/14 05:39:06;;;;;;;11.00;5.53;;;13.60;99.90;;;;;;5075307;28;20040;-71
2021/09/14 05:41:31;;;;;;;13.00;6.03;;;13.70;99.90;;;;;;5076314;28;20037;-71
2021/09/14 05:43:57;;;;;;;8.65;4.85;;;13.70;99.90;;;;;;5076645;28;20098;-71
2021/09/14 05:46:24;;;;;;;8.45;5.60;;;13.60;99.90;;;;;;5076810;28;20346;-71
2021/09/14 05:48:50;;;;;;;11.18;5.65;;;13.70;99.90;;;;;;5076044;28;20044;-71
2021/09/14 05:51:16;;;;;;;11.30;5.93;;;13.70;99.90;;;;;;5076465;28;20063;-71
2021/09/14 05:53:42;;;;;;;15.88;6.50;;;13.70;99.90;;;;;;5076503;28;20067;-71
2021/09/14 05:56:07;;;;;;;15.18;6.97;;;13.70;99.90;;;;;;5076279;28;20389;-71
2021/09/14 05:58:33;;;;;;;12.25;6.25;;;13.80;99.90;;;;;;5074576;28;20036;-71
2021/09/14 06:00:59;;;;;;;13.90;6.90;;;13.90;99.90;;;;;;5058132;28;20033;-71
2021/09/14 06:03:26;;;;;;;15.05;6.05;;;13.90;99.90;;;;;;5076436;28;20044;-70
2021/09/14 06:05:52;;;;;;;11.25;6.57;;;14.00;99.90;;;;;;5076646;28;20129;-71
2021/09/14 06:08:17;;;;;;;18.88;6.25;;;14.00;99.90;;;;;;5076205;28;20083;-71
2021/09/14 06:10:43;;;;;;;10.13;5.47;;;14.00;99.90;;;;;;5074375;28;20504;-70
2021/09/14 06:13:09;;;;;;;11.15;5.72;;;14.10;99.90;;;;;;5075998;28;20084;-70
2021/09/14 06:15:34;;;;;;;9.20;5.70;;;14.20;99.90;;;;;;5075919;28;20050;-70
2021/09/14 06:18:00;;;;;;;13.32;6.75;;;14.40;99.90;;;;;;5075983;28;20036;-71
2021/09/14 06:20:25;;;;;;;11.27;5.88;;;14.50;99.90;;;;;;5075789;28;20078;-70
2021/09/14 06:22:51;;;;;;;17.02;6.60;;;14.60;99.90;;;;;;5075260;28;20165;-71
2021/09/14 06:25:17;;;;;;;8.30;5.43;;;14.80;99.90;;;;;;5075993;28;20388;-70
2021/09/14 06:27:42;;;;;;;11.73;5.68;;;14.90;99.90;;;;;;5075991;28;20041;-70
2021/09/14 06:30:09;;;;;;;10.98;6.00;;;15.00;99.90;;;;;;5075846;28;20048;-70
2021/09/14 06:32:34;;;;;;;12.82;5.55;;;15.20;99.90;;;;;;5075697;28;20041;-70
2021/09/14 06:35:01;;;;;;;13.77;6.03;;;15.40;99.90;;;;;;5074505;28;20496;-71
2021/09/14 06:37:26;;;;;;;11.02;6.55;;;15.50;99.90;;;;;;5074450;28;20091;-71
2021/09/14 06:39:52;;;;;;;8.13;5.28;;;15.70;99.90;;;;;;5075029;28;20037;-71
2021/09/14 06:42:20;;;;;;;12.43;5.90;;;15.80;99.90;;;;;;5075423;28;20137;-71
2021/09/14 06:44:46;;;;;;;9.95;6.13;;;15.90;99.90;;;;;;5073847;28;20047;-70
2021/09/14 06:47:11;;;;;;;14.23;6.45;;;15.80;99.90;;;;;;5075064;28;20037;-71
2021/09/14 06:49:37;;;;;;;13.70;5.85;;;16.00;99.90;;;;;;5074037;28;20144;-70
2021/09/14 06:52:03;;;;;;;12.50;6.25;;;16.30;99.90;;;;;;5073972;28;20044;-71
2021/09/14 06:54:28;;;;;;;11.52;5.82;;;16.20;99.90;;;;;;5075124;28;20044;-71
2021/09/14 06:56:54;;;;;;;10.00;5.57;;;16.40;99.90;;;;;;5075331;28;20044;-71
2021/09/14 06:59:19;;;;;;;11.27;5.47;;;16.40;99.90;;;;;;5074996;28;20041;-71
2021/09/14 07:01:48;;;;;;;9.10;5.05;;;16.60;99.90;;;;;;5075291;28;20461;-72
2021/09/14 07:04:14;;;;;;;12.23;5.70;;;16.70;99.90;;;;;;5075735;28;20115;-71
2021/09/14 07:06:40;;;;;;;14.13;5.88;;;16.70;99.90;;;;;;5074043;28;20041;-71
2021/09/14 07:09:07;;;;;;;10.35;5.55;;;16.90;99.90;;;;;;5074748;28;20033;-71
2021/09/14 07:11:35;;;;;;;7.65;5.18;;;17.20;99.90;;;;;;5073682;28;20048;-71
2021/09/14 07:14:01;;;;;;;11.88;5.45;;;17.30;99.90;;;;;;5073739;28;20040;-71
2021/09/14 07:16:26;;;;;;;10.85;5.78;;;17.40;99.90;;;;;;5056909;28;20036;-71
2021/09/14 07:18:52;;;;;;;8.95;4.68;;;17.50;99.90;;;;;;5073590;28;20041;-71
2021/09/14 07:21:18;;;;;;;9.55;4.68;;;17.70;99.90;;;;;;5074486;28;20036;-71
2021/09/14 07:23:44;;;;;;;10.48;5.68;;;17.80;99.90;;;;;;5073624;28;20120;-71
2021/09/14 07:26:12;;;;;;;7.85;4.78;;;17.70;99.90;;;;;;5074613;28;20389;-71
2021/09/14 07:28:38;;;;;;;13.88;5.55;;;17.80;99.90;;;;;;5072880;28;20085;-71
2021/09/14 07:31:05;;;;;;;7.07;4.88;;;17.80;99.90;;;;;;5074538;28;20036;-70
2021/09/14 07:33:31;;;;;;;11.85;5.57;;;17.80;99.90;;;;;;5074926;28;20048;-71
2021/09/14 07:35:56;;;;;;;10.80;5.60;;;17.90;99.90;;;;;;5056616;28;20036;-71
2021/09/14 07:38:22;;;;;;;10.07;6.05;;;18.10;99.90;;;;;;5074390;28;20044;-71
2021/09/14 07:40:47;;;;;;;8.82;5.05;;;18.10;99.90;;;;;;5056112;28;20174;-71
2021/09/14 07:43:13;;;;;;;10.18;5.13;;;18.20;99.90;;;;;;5072962;28;20033;-70
2021/09/14 07:45:39;;;;;;;10.30;5.47;;;18.20;99.90;;;;;;5074099;28;20048;-70
2021/09/14 07:48:05;;;;;;;9.95;5.13;;;18.30;99.90;;;;;;5056389;28;20127;-71
2021/09/14 07:50:31;;;;;;;11.18;6.18;;;18.30;99.90;;;;;;5074499;28;20120;-72
2021/09/14 07:52:56;;;;;;;12.18;5.72;;;18.40;99.90;;;;;;5073004;28;20131;-71
2021/09/14 07:55:22;;;;;;;9.85;5.63;;;18.40;99.90;;;;;;5072859;28;20404;-70
2021/09/14 07:57:48;;;;;;;11.38;6.45;;;18.50;99.90;;;;;;5072807;28;20040;-71
2021/09/14 08:00:14;;;;;;;7.28;5.35;;;18.60;99.90;;;;;;5072410;28;20443;-71
2021/09/14 08:02:39;;;;;;;10.35;5.68;;;18.70;99.90;;;;;;5072689;28;20044;-71
2021/09/14 08:05:06;;;;;;;13.95;6.35;;;18.80;99.90;;;;;;5074510;28;20040;-71
2021/09/14 08:07:32;;;;;;;11.02;5.82;;;18.90;99.90;;;;;;5073121;28;20052;-71
2021/09/14 08:09:57;;;;;;;13.93;7.20;;;19.00;99.90;;;;;;5072151;28;20094;-70
2021/09/14 08:12:23;;;;;;;8.07;6.10;;;19.10;99.90;;;;;;5073896;28;20044;-72
2021/09/14 08:14:49;;;;;;;9.18;7.32;;;19.00;99.90;;;;;;5073953;28;20052;-73
2021/09/14 08:17:16;;;;;;;12.70;6.90;;;19.00;99.90;;;;;;5070845;28;20040;-73
2021/09/14 08:19:43;;;;;;;9.27;5.78;;;19.10;99.90;;;;;;5053355;28;20044;-73
2021/09/14 08:22:10;;;;;;;8.32;6.30;;;19.10;99.90;;;;;;5072004;28;20048;-73
2021/09/14 08:24:36;;;;;;;12.23;7.75;;;19.20;99.90;;;;;;5070988;28;20146;-73
2021/09/14 08:27:02;;;;;;;10.02;7.05;;;19.10;99.90;;;;;;5070890;28;20507;-74
2021/09/14 08:29:28;;;;;;;12.95;6.88;;;19.10;99.90;;;;;;5071905;28;20045;-71
2021/09/14 08:31:53;;;;;;;11.13;7.43;;;19.20;99.90;;;;;;5072941;28;20052;-72
2021/09/14 08:34:19;;;;;;;12.00;7.40;;;19.30;99.90;;;;;;5073628;28;20049;-72
2021/09/14 08:36:44;;;;;;;17.73;8.30;;;19.40;99.90;;;;;;5073329;28;20368;-71
2021/09/14 08:39:10;;;;;;;10.68;7.05;;;19.40;99.90;;;;;;5071715;28;20094;-71
2021/09/14 08:41:37;;;;;;;13.70;7.15;;;19.50;99.90;;;;;;5073585;28;20392;-72
2021/09/14 08:44:04;;;;;;;9.80;7.18;;;19.60;99.90;;;;;;5072242;28;20040;-72
2021/09/14 08:46:30;;;;;;;16.17;9.05;;;19.50;99.90;;;;;;5073377;28;20036;-72
2021/09/14 08:48:58;;;;;;;11.98;6.72;;;19.60;99.90;;;;;;5072892;28;20059;-72
2021/09/14 08:51:26;;;;;;;11.23;7.57;;;19.60;99.90;;;;;;5072306;28;20366;-72
2021/09/14 08:53:51;;;;;;;10.98;7.40;;;19.60;99.90;;;;;;5072053;28;20074;-72
2021/09/14 08:56:17;;;;;;;12.13;7.38;;;19.60;99.90;;;;;;5071870;28;20481;-72
2021/09/14 08:58:43;;;;;;;13.95;7.22;;;19.70;99.90;;;;;;5071562;28;20037;-72
2021/09/14 09:01:12;;;;;;;12.77;7.00;;;19.60;99.90;;;;;;5055174;28;20036;-72
2021/09/14 09:03:38;;;;;;;11.00;8.27;;;19.70;99.90;;;;;;5055504;28;20040;-72
2021/09/14 09:06:04;;;;;;;10.73;7.60;;;19.70;99.90;;;;;;5073422;28;20389;-72
2021/09/14 09:08:31;;;;;;;12.63;8.20;;;19.80;99.90;;;;;;5073187;28;20125;-73
2021/09/14 09:10:59;;;;;;;11.25;8.38;;;19.80;99.90;;;;;;5077514;28;20118;-72
2021/09/14 09:13:30;;;;;;;15.32;8.38;;;19.80;99.90;;;;;;5076166;28;20536;-72
2021/09/14 09:15:55;;;;;;;13.38;7.60;;;19.80;99.90;;;;;;5076273;28;20045;-72
2021/09/14 09:18:21;;;;;;;16.85;8.63;;;19.90;99.90;;;;;;5077065;28;20412;-73
2021/09/14 09:20:48;;;;;;;11.18;8.05;;;19.70;99.90;;;;;;5076965;28;20040;-72
2021/09/14 09:23:34;;;;;;;14.68;8.95;;;19.70;99.90;;;;;;5075675;28;20037;-72
2021/09/14 09:26:10;;;;;;;13.98;8.95;;;19.70;99.90;;;;;;5076751;28;20102;-72
2021/09/14 09:28:36;;;;;;;11.45;8.77;;;19.80;99.90;;;;;;5075423;28;20047;-74
2021/09/14 09:31:09;;;;;;;12.70;8.93;;;19.70;99.90;;;;;;5075580;28;20048;-73
2021/09/14 09:33:35;;;;;;;11.82;8.60;;;19.80;99.90;;;;;;5076948;28;20350;-73
2021/09/14 09:36:07;;;;;;;12.70;8.82;;;19.70;99.90;;;;;;5076675;28;20052;-73
2021/09/14 09:38:46;;;;;;;14.15;9.45;;;19.60;99.90;;;;;;5076584;28;20044;-74
2021/09/14 09:41:18;;;;;;;12.60;8.32;;;19.60;99.90;;;;;;5076531;28;20116;-75
2021/09/14 09:43:46;;;;;;;16.73;9.48;;;19.60;99.90;;;;;;5076320;28;20381;-73
2021/09/14 09:46:18;;;;;;;13.65;8.80;;;19.60;99.90;;;;;;5076264;28;20037;-73
2021/09/14 09:48:44;;;;;;;14.88;8.75;;;19.70;99.90;;;;;;5076241;28;20039;-74
2021/09/14 09:51:13;;;;;;;11.20;8.57;;;19.80;99.90;;;;;;5075202;28;20036;-73
2021/09/14 09:53:39;;;;;;;10.32;8.85;;;19.80;99.90;;;;;;5075599;28;20068;-73
2021/09/14 09:56:06;;;;;;;12.10;8.50;;;19.80;99.90;;;;;;5076584;28;20473;-71
2021/09/14 09:58:32;;;;;;;13.98;8.90;;;19.80;99.90;;;;;;5075901;28;20036;-73
2021/09/14 10:01:02;;;;;;;12.13;8.35;;;19.90;99.90;;;;;;5076337;28;20036;-73
2021/09/14 10:03:34;;;;;;;10.70;8.00;;;19.90;99.90;;;;;;5076646;28;20520;-73
2021/09/14 10:06:08;;;;;;;12.10;9.55;;;19.90;99.90;;;;;;5076352;28;20085;-71
2021/09/14 10:08:34;;;;;;;12.68;8.88;;;19.70;99.90;;;;;;5074983;28;20142;-74
2021/09/14 10:11:00;;;;;;;11.85;8.85;;;19.70;99.90;;;;;;5074812;28;20084;-74
2021/09/14 10:13:35;;;;;;;14.07;8.35;;;19.80;99.90;;;;;;5075317;28;20040;-75
2021/09/14 10:16:02;;;;;;;12.77;8.50;;;19.70;99.90;;;;;;5076317;28;20044;-73
2021/09/14 10:18:33;;;;;;;10.40;8.13;;;19.70;99.90;;;;;;5075855;28;20072;-75
2021/09/14 10:21:00;;;;;;;13.05;8.98;;;19.80;99.90;;;;;;5075750;28;20477;-73
2021/09/14 10:23:52;;;;;;;13.40;8.25;;;19.80;99.90;;;;;;5074755;28;20131;-74
2021/09/14 10:26:19;;;;;;;12.23;8.63;;;19.80;99.90;;;;;;5074590;28;20140;-73
2021/09/14 10:28:48;;;;;;;11.38;7.75;;;19.80;99.90;;;;;;5075759;28;20078;-73
2021/09/14 10:31:22;;;;;;;15.45;8.55;;;19.80;99.90;;;;;;5074538;28;20052;-73
2021/09/14 10:34:06;;;;;;;12.73;8.48;;;19.80;99.90;;;;;;5075686;28;20516;-74
2021/09/14 10:36:34;;;;;;;9.68;7.72;;;19.90;99.90;;;;;;5075543;28;20481;-74
2021/09/14 10:39:00;;;;;;;12.82;7.50;;;20.00;99.90;;;;;;5074136;28;20037;-74
2021/09/14 10:41:40;;;;;;;11.60;7.93;;;20.00;99.90;;;;;;5057738;28;20485;-74
2021/09/14 10:44:09;;;;;;;15.05;8.15;;;20.10;99.90;;;;;;5074717;28;20426;-74
2021/09/14 10:46:36;;;;;;;11.75;7.82;;;20.20;99.90;;;;;;5057698;28;20072;-74
2021/09/14 10:49:22;;;;;;;10.73;7.53;;;20.20;99.90;;;;;;5075059;28;20072;-74
2021/09/14 10:51:56;;;;;;;13.75;8.77;;;20.40;99.90;;;;;;5073867;28;20416;-73
2021/09/14 10:54:22;;;;;;;15.05;8.45;;;20.50;99.90;;;;;;5074221;28;20048;-73
2021/09/14 10:56:50;;;;;;;12.18;8.73;;;20.50;99.90;;;;;;5075421;28;20503;-73
2021/09/14 10:59:19;;;;;;;11.98;8.18;;;20.60;99.90;;;;;;5074947;28;20111;-73
2021/09/14 11:01:50;;;;;;;11.88;7.78;;;20.60;99.90;;;;;;5075136;28;20393;-73
2021/09/14 11:04:15;;;;;;;10.57;7.10;;;20.70;99.90;;;;;;5075219;28;20414;-72
2021/09/14 11:06:46;;;;;;;12.75;7.13;;;20.60;99.90;;;;;;5074866;28;20124;-73
2021/09/14 11:09:12;;;;;;;12.40;7.05;;;20.80;99.90;;;;;;5074943;28;20119;-73
2021/09/14 11:11:38;;;;;;;9.00;6.90;;;20.70;99.90;;;;;;5075007;28;20121;-73
2021/09/14 11:14:03;;;;;;;9.45;7.25;;;20.70;99.90;;;;;;5073396;28;20048;-73
2021/09/14 11:16:29;;;;;;;12.73;6.72;;;20.70;99.90;;;;;;5075715;28;20040;-73
2021/09/14 11:18:59;;;;;;;11.20;7.10;;;20.80;99.90;;;;;;5074521;28;20098;-73
2021/09/14 11:21:25;;;;;;;11.18;6.70;;;20.90;99.90;;;;;;5074731;28;20036;-74
2021/09/14 11:23:50;;;;;;;12.68;7.93;;;20.90;99.90;;;;;;5074669;28;20370;-74
2021/09/14 11:26:19;;;;;;;14.07;7.57;;;20.90;99.90;;;;;;5073700;28;20051;-73
2021/09/14 11:28:58;;;;;;;8.93;6.38;;;20.90;99.90;;;;;;5073414;28;20446;-72
2021/09/14 11:31:28;;;;;;;11.63;6.60;;;20.90;99.90;;;;;;5073948;28;20056;-72
2021/09/14 11:33:54;;;;;;;10.95;6.25;;;20.90;99.90;;;;;;5074659;28;20115;-74
2021/09/14 11:36:20;;;;;;;12.63;7.28;;;20.90;99.90;;;;;;5074285;28;20171;-72
2021/09/14 11:39:04;;;;;;;10.15;7.25;;;20.90;99.90;;;;;;5072847;28;20119;-73
2021/09/14 11:41:35;;;;;;;8.40;6.70;;;20.90;99.80;;;;;;5074678;28;20055;-73
2021/09/14 11:44:04;;;;;;;9.55;6.90;;;21.00;99.80;;;;;;5074390;28;20488;-74
2021/09/14 11:46:30;;;;;;;9.50;7.28;;;21.00;99.70;;;;;;5056359;28;20077;-72
2021/09/14 11:49:05;;;;;;;10.80;6.90;;;21.00;99.90;;;;;;5072940;28;20077;-73
2021/09/14 11:51:39;;;;;;;10.73;6.72;;;21.10;99.90;;;;;;5073174;28;20503;-74
2021/09/14 11:54:09;;;;;;;15.07;8.25;;;21.10;99.90;;;;;;5056345;28;20037;-72
2021/09/14 11:56:35;;;;;;;9.63;7.68;;;21.20;99.90;;;;;;5072933;28;20044;-69
2021/09/14 11:59:01;;;;;;;12.15;7.90;;;21.50;99.80;;;;;;5073917;28;20052;-69
2021/09/14 12:01:31;;;;;;;11.65;7.07;;;21.60;99.30;;;;;;5074015;28;20037;-70
2021/09/14 12:03:57;;;;;;;11.93;7.05;;;21.70;98.90;;;;;;5073756;28;20481;-70
2021/09/14 12:06:25;;;;;;;9.98;7.47;;;21.70;98.90;;;;;;5073296;28;20086;-70
2021/09/14 12:08:51;;;;;;;11.50;7.78;;;21.80;98.50;;;;;;5073642;28;20045;-70
2021/09/14 12:11:35;;;;;;;9.95;7.05;;;21.80;98.10;;;;;;5072484;28;20040;-70
2021/09/14 12:14:04;;;;;;;8.65;6.55;;;21.80;98.20;;;;;;5074125;28;20037;-69
2021/09/14 12:16:38;;;;;;;11.80;7.20;;;21.90;98.50;;;;;;5073829;28;20044;-69
2021/09/14 12:19:04;;;;;;;7.57;5.68;;;21.90;97.40;;;;;;5072165;28;20037;-70
2021/09/14 12:21:30;;;;;;;10.10;6.82;;;22.00;97.90;;;;;;5073455;28;20032;-70
2021/09/14 12:23:56;;;;;;;8.77;7.10;;;22.00;98.00;;;;;;5073847;28;20500;-69
2021/09/14 12:26:30;;;;;;;9.55;6.05;;;22.10;96.70;;;;;;5073734;28;20051;-70
2021/09/14 12:28:59;;;;;;;9.18;6.43;;;22.10;96.70;;;;;;5073375;28;20115;-70
2021/09/14 12:31:25;;;;;;;8.00;6.82;;;22.10;97.00;;;;;;5073608;28;20045;-69
2021/09/14 12:33:51;;;;;;;11.98;7.00;;;22.00;96.80;;;;;;5073780;28;20058;-70
2021/09/14 12:36:18;;;;;;;8.18;6.63;;;22.10;97.00;;;;;;5073838;28;20097;-70
2021/09/14 12:38:44;;;;;;;11.55;7.20;;;22.10;97.10;;;;;;5072198;28;20117;-69
2021/09/14 12:41:10;;;;;;;8.63;6.35;;;22.10;96.00;;;;;;5072316;28;20043;-69
2021/09/14 12:43:37;;;;;;;10.02;6.50;;;22.10;96.50;;;;;;5073117;28;20485;-69
2021/09/14 12:46:03;;;;;;;7.50;6.70;;;22.20;96.30;;;;;;5073402;28;20044;-69
2021/09/14 12:48:29;;;;;;;9.52;7.00;;;22.10;95.60;;;;;;5055529;28;20558;-70
2021/09/14 12:50:55;;;;;;;11.95;9.02;;;22.20;95.70;;;;;;5073419;28;20037;-69
2021/09/14 12:53:20;;;;;;;14.32;10.13;;;22.20;95.50;;;;;;5073698;28;20070;-69
2021/09/14 12:55:46;;;;;;;15.43;8.18;;;22.30;95.80;;;;;;5073472;28;20044;-69
2021/09/14 12:58:12;;;;;;;16.58;8.43;;;22.20;95.50;;;;;;5073205;28;20056;-69
2021/09/14 13:00:38;;;;;;;10.18;6.97;;;22.30;95.60;;;;;;5071770;28;20044;-69
2021/09/14 13:03:04;;;;;;;10.40;7.25;;;22.30;96.20;;;;;;5073418;28;20131;-69
2021/09/14 13:05:32;;;;;;;9.63;7.78;;;22.50;94.90;;;;;;5072069;28;20441;-69
2021/09/14 13:07:58;;;;;;;12.50;8.38;;;22.40;95.50;;;;;;5073204;28;20040;-70
2021/09/14 13:10:24;;;;;;;12.63;9.15;;;22.30;96.60;;;;;;5071532;28;20052;-69
2021/09/14 13:18:23;;;;;;;10.48;8.70;;;22.40;96.50;;;;;;5071883;28;20053;-69
2021/09/14 13:20:49;;;;;;;9.90;8.23;;;22.40;96.50;;;;;;5072441;28;20127;-69
2021/09/14 13:23:15;;;;;;;13.93;8.05;;;22.50;95.50;;;;;;5073150;28;20131;-69
2021/09/14 13:25:40;;;;;;;11.45;9.25;;;22.40;95.90;;;;;;5072045;28;20072;-69
2021/09/14 13:28:06;;;;;;;12.23;9.40;;;22.50;96.30;;;;;;5073250;28;20037;-69
2021/09/14 13:30:32;;;;;;;13.32;9.75;;;22.40;96.00;;;;;;5071276;28;20049;-69
2021/09/14 13:32:57;;;;;;;11.95;9.35;;;22.40;95.50;;;;;;5072803;28;20041;-69
2021/09/14 13:35:23;;;;;;;13.07;9.20;;;22.40;95.80;;;;;;5071458;28;20120;-69
2021/09/14 13:37:49;;;;;;;14.90;10.60;;;22.40;96.40;;;;;;5071257;28;20117;-69